Time;durP1;ratioP1;P1;durP2;ratioP2;P2;SDS_P1;SDS_P2;PMS_P1;PMS_P2;Temp;Humidity;BMP_temperature;BMP_pressure;BME280_temperature;BME280_humidity;BME280_pressure;Samples;Min_cycle;Max_cycle;Signal;HPM_P1;HPM_P2
2023/11/20 00:01:24;;;;;;;12.20;1.60;;;8.00;99.90;;;;;;2584482;54;20027;31
2023/11/20 00:03:57;;;;;;;7.53;1.50;;;8.00;99.90;;;;;;2585278;54;21003;31
2023/11/20 00:06:32;;;;;;;13.15;2.20;;;8.10;99.90;;;;;;2585601;54;21179;31
2023/11/20 00:09:07;;;;;;;6.30;1.50;;;8.00;99.90;;;;;;2585678;54;20036;31
2023/11/20 00:11:43;;;;;;;7.70;2.10;;;8.10;99.90;;;;;;2585720;54;20055;31
2023/11/20 00:14:16;;;;;;;5.28;1.27;;;8.30;99.90;;;;;;2585718;54;21249;31
2023/11/20 00:16:49;;;;;;;9.23;1.38;;;8.10;99.90;;;;;;2683133;39;22445;31
2023/11/20 00:19:27;;;;;;;7.70;1.75;;;8.20;99.90;;;;;;2585334;54;20034;31
2023/11/20 00:22:00;;;;;;;8.40;1.25;;;8.20;99.90;;;;;;2585509;54;20022;31
2023/11/20 00:24:37;;;;;;;6.05;1.23;;;8.20;99.90;;;;;;2603843;46;20784;31
2023/11/20 00:27:12;;;;;;;8.53;1.50;;;8.20;99.90;;;;;;2584956;54;20033;31
2023/11/20 00:29:47;;;;;;;7.80;1.50;;;8.30;99.90;;;;;;2585489;54;20049;31
2023/11/20 00:32:21;;;;;;;6.20;1.45;;;8.00;99.90;;;;;;2603943;46;20112;31
2023/11/20 00:34:54;;;;;;;10.45;1.25;;;8.40;99.90;;;;;;2585523;54;20906;31
2023/11/20 00:37:27;;;;;;;8.75;1.67;;;8.40;99.90;;;;;;2585333;54;20916;31
2023/11/20 00:40:02;;;;;;;5.57;1.10;;;8.40;99.90;;;;;;2585294;54;20937;31
2023/11/20 00:42:40;;;;;;;5.60;1.50;;;8.40;99.90;;;;;;2585170;54;20031;31
2023/11/20 00:45:15;;;;;;;6.30;0.95;;;8.50;99.90;;;;;;2585123;54;20038;31
2023/11/20 00:47:45;;;;;;;4.70;1.30;;;8.50;99.90;;;;;;2585179;54;21028;31
2023/11/20 00:50:20;;;;;;;10.75;1.65;;;8.50;99.90;;;;;;2585225;54;20997;31
2023/11/20 00:52:56;;;;;;;4.15;1.20;;;8.50;99.90;;;;;;2585501;54;20022;31
2023/11/20 00:55:31;;;;;;;10.13;1.70;;;8.50;99.90;;;;;;2585201;54;20833;31
2023/11/20 00:58:09;;;;;;;10.38;1.33;;;8.60;99.90;;;;;;2585486;54;20093;31
2023/11/20 01:00:43;;;;;;;7.87;1.27;;;8.60;99.90;;;;;;2585437;54;19946;31
2023/11/20 01:03:18;;;;;;;6.15;1.05;;;8.60;99.90;;;;;;2585238;54;20879;31
2023/11/20 01:05:54;;;;;;;6.30;0.85;;;8.60;99.90;;;;;;2603745;46;20891;31
2023/11/20 01:08:27;;;;;;;6.13;1.20;;;8.60;99.90;;;;;;2585241;54;20959;31
2023/11/20 01:11:02;;;;;;;6.50;1.40;;;8.60;99.90;;;;;;2585443;54;20255;31
2023/11/20 01:13:37;;;;;;;4.45;1.00;;;8.70;99.90;;;;;;2584967;54;20965;31
2023/11/20 01:16:13;;;;;;;6.10;2.30;;;8.70;99.90;;;;;;2585104;54;20030;31
2023/11/20 01:18:47;;;;;;;8.37;0.83;;;8.70;99.90;;;;;;2585024;54;20810;31
2023/11/20 01:21:20;;;;;;;5.40;1.20;;;8.70;99.90;;;;;;2585371;54;20990;31
2023/11/20 01:23:53;;;;;;;11.20;1.30;;;8.70;99.90;;;;;;2585077;54;20035;31
2023/11/20 01:26:26;;;;;;;5.70;1.23;;;8.70;99.90;;;;;;2585249;54;21271;31
2023/11/20 01:29:04;;;;;;;5.68;1.20;;;8.70;99.90;;;;;;2585286;54;20894;31
2023/11/20 01:31:37;;;;;;;5.57;1.13;;;8.70;99.90;;;;;;2585149;54;20938;31
2023/11/20 01:34:13;;;;;;;4.60;1.35;;;8.70;99.90;;;;;;2584997;54;20956;31
2023/11/20 01:36:46;;;;;;;8.82;0.98;;;8.70;99.90;;;;;;2585267;54;20053;31
2023/11/20 01:39:20;;;;;;;6.97;1.48;;;8.70;99.90;;;;;;2753837;31;20436;31
2023/11/20 01:41:55;;;;;;;4.15;1.23;;;8.70;99.90;;;;;;2603227;46;20997;31
2023/11/20 01:44:27;;;;;;;5.03;1.67;;;8.70;99.90;;;;;;2585463;54;20030;31
2023/11/20 01:47:03;;;;;;;5.28;1.08;;;8.70;99.90;;;;;;2584915;54;20917;31
2023/11/20 01:49:39;;;;;;;3.50;0.97;;;8.70;99.90;;;;;;2585150;54;20941;31
2023/11/20 01:52:12;;;;;;;4.95;2.15;;;8.90;99.90;;;;;;2585433;54;21990;31
2023/11/20 01:54:47;;;;;;;4.60;1.35;;;8.70;99.90;;;;;;2585139;54;19941;31
2023/11/20 01:57:22;;;;;;;5.87;1.73;;;8.80;99.90;;;;;;2584885;54;21079;31
2023/11/20 01:59:54;;;;;;;5.97;1.10;;;8.80;99.90;;;;;;2603378;46;20932;31
2023/11/20 02:02:32;;;;;;;6.50;1.40;;;8.80;99.90;;;;;;2584819;54;21058;31
2023/11/20 02:05:05;;;;;;;4.50;1.20;;;8.80;99.90;;;;;;2603525;46;20899;31
2023/11/20 02:07:38;;;;;;;10.48;2.05;;;8.80;99.90;;;;;;2585141;54;20060;31
2023/11/20 02:10:11;;;;;;;6.18;1.15;;;8.80;99.90;;;;;;2584960;54;21019;31
2023/11/20 02:12:45;;;;;;;4.78;1.10;;;8.80;99.90;;;;;;2584741;54;21048;31
2023/11/20 02:15:20;;;;;;;7.20;1.05;;;8.70;99.90;;;;;;2603544;46;20053;31
2023/11/20 02:17:56;;;;;;;6.85;1.60;;;8.70;99.90;;;;;;2603213;46;20022;31
2023/11/20 02:20:31;;;;;;;4.50;1.50;;;8.70;99.90;;;;;;2603062;46;20033;31
2023/11/20 02:23:06;;;;;;;6.10;1.55;;;8.70;99.90;;;;;;2585035;54;20838;31
2023/11/20 02:25:40;;;;;;;8.15;1.40;;;8.70;99.90;;;;;;2584542;54;21111;31
2023/11/20 02:28:18;;;;;;;6.65;1.10;;;8.70;99.90;;;;;;2603525;46;21923;31
2023/11/20 02:30:56;;;;;;;10.52;1.33;;;8.70;99.90;;;;;;2585263;54;20912;31
2023/11/20 02:33:31;;;;;;;2.20;0.80;;;8.80;99.90;;;;;;2584993;54;20906;31
2023/11/20 02:36:09;;;;;;;4.20;1.45;;;8.80;99.90;;;;;;2584733;54;20959;31
2023/11/20 02:38:44;;;;;;;6.63;1.10;;;8.80;99.90;;;;;;2603701;46;20950;31
2023/11/20 02:41:19;;;;;;;9.30;1.40;;;8.80;99.90;;;;;;2603195;46;20033;31
2023/11/20 02:43:52;;;;;;;4.27;1.27;;;8.80;99.90;;;;;;2603329;46;20067;31
2023/11/20 02:46:28;;;;;;;4.93;1.47;;;8.80;99.90;;;;;;2584838;54;20928;31
2023/11/20 02:49:02;;;;;;;5.45;1.50;;;8.80;99.90;;;;;;2584930;54;20045;31
2023/11/20 02:51:37;;;;;;;4.90;1.50;;;8.80;99.90;;;;;;2584947;54;20080;31
2023/11/20 02:54:09;;;;;;;7.87;1.20;;;8.80;99.90;;;;;;2584398;54;20858;31
2023/11/20 02:56:44;;;;;;;7.03;1.90;;;8.80;99.90;;;;;;2584653;54;20030;31
2023/11/20 02:59:17;;;;;;;5.55;1.10;;;8.80;99.90;;;;;;2584676;54;20138;31
2023/11/20 03:01:53;;;;;;;6.90;1.13;;;8.80;99.90;;;;;;2584687;54;20869;31
2023/11/20 03:04:25;;;;;;;;;;;8.80;99.90;;;;;;2585164;54;20941;31
2023/11/20 03:07:00;;;;;;;4.65;1.65;;;8.90;99.90;;;;;;2584730;54;20688;31
2023/11/20 03:09:33;;;;;;;3.53;1.23;;;8.90;99.90;;;;;;2584741;54;20055;31
2023/11/20 03:12:08;;;;;;;7.35;2.30;;;8.90;99.90;;;;;;2584550;54;21136;31
2023/11/20 03:14:47;;;;;;;7.50;1.90;;;8.80;99.90;;;;;;2584867;54;21046;31
2023/11/20 03:17:23;;;;;;;9.07;1.80;;;8.90;99.90;;;;;;2584836;54;20931;31
2023/11/20 03:19:59;;;;;;;5.23;2.10;;;8.90;99.90;;;;;;2584739;54;20806;31
2023/11/20 03:22:33;;;;;;;5.10;1.00;;;8.80;99.90;;;;;;2584824;54;20967;31
2023/11/20 03:25:06;;;;;;;3.80;1.73;;;8.90;99.90;;;;;;2584558;54;20949;31
2023/11/20 03:27:40;;;;;;;4.45;1.40;;;8.90;99.90;;;;;;2603110;47;20030;31
2023/11/20 03:30:16;;;;;;;6.77;1.60;;;8.90;99.90;;;;;;2584599;54;20063;31
2023/11/20 03:32:52;;;;;;;5.75;1.65;;;8.90;99.90;;;;;;2584577;54;20108;31
2023/11/20 03:35:25;;;;;;;5.65;2.50;;;8.80;99.90;;;;;;2584424;54;20031;31
2023/11/20 03:38:00;;;;;;;4.10;1.50;;;8.80;99.90;;;;;;2585462;54;20933;31
2023/11/20 03:40:32;;;;;;;6.55;1.95;;;8.80;99.90;;;;;;2585324;54;20890;31
2023/11/20 03:43:07;;;;;;;7.75;1.83;;;8.80;99.90;;;;;;2585201;54;20118;31
2023/11/20 03:45:41;;;;;;;3.65;1.90;;;8.80;99.90;;;;;;2585443;54;20869;31
2023/11/20 03:48:18;;;;;;;5.43;1.90;;;8.80;99.90;;;;;;2585274;54;20101;31
2023/11/20 03:50:51;;;;;;;7.70;1.85;;;8.80;99.90;;;;;;2585402;54;21040;31
2023/11/20 03:53:24;;;;;;;2.80;1.30;;;8.80;99.90;;;;;;2585420;54;20034;31
2023/11/20 03:55:57;;;;;;;8.32;1.77;;;8.80;99.90;;;;;;2585189;54;20923;31
2023/11/20 03:58:30;;;;;;;8.68;2.40;;;8.80;99.90;;;;;;2585055;54;20026;31
2023/11/20 04:01:05;;;;;;;9.35;1.70;;;8.80;99.90;;;;;;2585192;54;20776;31
2023/11/20 04:03:42;;;;;;;5.90;1.77;;;8.80;99.90;;;;;;2585261;54;20112;31
2023/11/20 04:06:17;;;;;;;5.72;2.13;;;8.80;99.90;;;;;;2585309;54;20034;31
2023/11/20 04:08:50;;;;;;;3.90;1.20;;;8.80;99.90;;;;;;2603077;46;20104;31
2023/11/20 04:11:25;;;;;;;5.00;1.70;;;8.70;99.90;;;;;;2585238;54;20907;31
2023/11/20 04:13:59;;;;;;;5.57;1.90;;;8.70;99.90;;;;;;2585547;54;20049;31
2023/11/20 04:16:33;;;;;;;8.63;2.17;;;8.80;99.90;;;;;;2585057;54;20038;31
2023/11/20 04:19:13;;;;;;;5.88;1.70;;;8.70;99.90;;;;;;2585495;54;20100;31
2023/11/20 04:21:48;;;;;;;4.60;1.63;;;8.80;99.90;;;;;;2585589;54;20952;31
2023/11/20 04:24:23;;;;;;;4.85;1.48;;;8.80;99.90;;;;;;2603881;46;20085;31
2023/11/20 04:26:56;;;;;;;4.20;2.00;;;8.80;99.90;;;;;;2585138;54;20983;31
2023/11/20 04:29:31;;;;;;;4.17;1.20;;;8.80;99.90;;;;;;2585227;54;20054;31
2023/11/20 04:32:04;;;;;;;5.72;1.70;;;8.70;99.90;;;;;;2585224;54;20053;31
2023/11/20 04:34:40;;;;;;;2.50;1.43;;;8.70;99.90;;;;;;2585045;54;20160;31
2023/11/20 04:37:14;;;;;;;5.07;1.40;;;8.70;99.90;;;;;;2585181;54;20032;31
2023/11/20 04:39:49;;;;;;;4.90;1.60;;;8.70;99.90;;;;;;2585276;54;20067;31
2023/11/20 04:42:22;;;;;;;5.25;1.40;;;8.70;99.90;;;;;;2585151;54;20027;31
2023/11/20 04:44:58;;;;;;;2.60;1.25;;;8.80;99.90;;;;;;2585042;54;20037;31
2023/11/20 04:47:33;;;;;;;5.50;1.30;;;8.70;99.90;;;;;;2585022;54;20860;31
2023/11/20 04:50:11;;;;;;;5.37;1.77;;;8.70;99.90;;;;;;2585432;54;19989;31
2023/11/20 04:52:44;;;;;;;2.25;1.40;;;8.70;99.90;;;;;;2585050;54;20293;31
2023/11/20 04:55:18;;;;;;;4.63;1.70;;;8.80;99.90;;;;;;2584761;54;20085;31
2023/11/20 04:57:52;;;;;;;5.97;1.60;;;8.80;99.90;;;;;;2585128;54;20890;31
2023/11/20 05:00:28;;;;;;;3.45;1.40;;;8.70;99.90;;;;;;2585345;54;20826;31
2023/11/20 05:03:01;;;;;;;3.40;1.60;;;8.70;99.90;;;;;;2585032;54;20070;31
2023/11/20 05:05:39;;;;;;;3.57;1.60;;;8.80;99.90;;;;;;2603678;46;20863;31
2023/11/20 05:08:12;;;;;;;3.20;1.30;;;8.70;99.90;;;;;;2585281;54;21006;31
2023/11/20 05:10:47;;;;;;;2.33;1.10;;;8.80;99.90;;;;;;2584943;54;20052;31
2023/11/20 05:13:20;;;;;;;4.10;1.33;;;8.70;99.90;;;;;;2585242;54;20030;31
2023/11/20 05:15:55;;;;;;;7.95;1.50;;;8.70;99.90;;;;;;2603244;46;20081;31
2023/11/20 05:18:28;;;;;;;1.95;1.10;;;8.80;99.90;;;;;;2584691;54;20970;31
2023/11/20 05:21:06;;;;;;;5.63;1.63;;;8.80;99.90;;;;;;2584664;54;20779;31
2023/11/20 05:23:40;;;;;;;4.78;1.95;;;8.70;99.90;;;;;;2604144;46;20082;31
2023/11/20 05:26:13;;;;;;;3.90;1.55;;;8.80;99.90;;;;;;2585116;54;20030;31
2023/11/20 05:28:46;;;;;;;8.90;2.00;;;8.80;99.90;;;;;;2584947;54;20026;31
2023/11/20 05:31:19;;;;;;;7.40;1.92;;;8.80;99.90;;;;;;2585142;54;20049;31
2023/11/20 05:33:52;;;;;;;3.53;1.80;;;8.80;99.90;;;;;;2584966;54;20149;31
2023/11/20 05:36:24;;;;;;;4.33;1.43;;;8.80;99.90;;;;;;2584965;54;20234;31
2023/11/20 05:39:00;;;;;;;2.45;1.25;;;8.80;99.90;;;;;;2584928;54;20026;31
2023/11/20 05:41:34;;;;;;;5.43;1.88;;;8.80;99.90;;;;;;2584929;54;20913;31
2023/11/20 05:44:08;;;;;;;2.70;1.50;;;8.80;99.90;;;;;;2584988;54;20048;31
2023/11/20 05:46:41;;;;;;;2.83;1.67;;;8.80;99.90;;;;;;2585207;54;20093;31
2023/11/20 05:49:14;;;;;;;4.80;1.80;;;8.80;99.90;;;;;;2584842;54;20793;31
2023/11/20 05:51:47;;;;;;;3.40;1.60;;;8.80;99.90;;;;;;2584728;54;20062;31
2023/11/20 05:54:24;;;;;;;5.05;2.15;;;8.80;99.90;;;;;;2585006;54;20848;31
2023/11/20 05:56:59;;;;;;;6.00;2.15;;;8.80;99.90;;;;;;2603850;46;20804;31
2023/11/20 05:59:34;;;;;;;3.47;1.23;;;8.90;99.90;;;;;;2584818;54;20072;31
2023/11/20 06:02:10;;;;;;;4.30;1.90;;;8.90;99.90;;;;;;2745043;31;20025;31
2023/11/20 06:04:43;;;;;;;6.77;1.63;;;8.90;99.90;;;;;;2603032;46;20168;31
2023/11/20 06:07:17;;;;;;;5.00;1.90;;;8.90;99.90;;;;;;2585235;54;20949;31
2023/11/20 06:09:53;;;;;;;3.75;1.70;;;8.90;99.90;;;;;;2603296;46;20026;31
2023/11/20 06:12:26;;;;;;;4.80;1.55;;;8.90;99.90;;;;;;2585337;54;20031;31
2023/11/20 06:15:01;;;;;;;4.10;1.90;;;8.90;99.90;;;;;;2584884;54;20850;31
2023/11/20 06:17:36;;;;;;;3.97;1.92;;;8.90;99.90;;;;;;2585033;54;20112;31
2023/11/20 06:20:13;;;;;;;3.30;1.70;;;8.90;99.90;;;;;;2585076;54;21024;31
2023/11/20 06:22:48;;;;;;;4.07;1.40;;;9.00;99.90;;;;;;2584831;54;21137;31
2023/11/20 06:25:26;;;;;;;4.55;2.45;;;8.90;99.90;;;;;;2585202;54;20041;31
2023/11/20 06:27:59;;;;;;;5.63;1.65;;;9.00;99.90;;;;;;2585140;54;20762;31
2023/11/20 06:30:32;;;;;;;3.92;2.00;;;8.90;99.90;;;;;;2585113;54;20029;31
2023/11/20 06:33:05;;;;;;;6.35;2.92;;;8.90;99.90;;;;;;2584901;54;20874;31
2023/11/20 06:35:39;;;;;;;3.95;2.38;;;8.90;99.90;;;;;;2585085;54;20042;31
2023/11/20 06:38:13;;;;;;;5.50;2.20;;;8.90;99.90;;;;;;2584848;54;20895;31
2023/11/20 06:40:48;;;;;;;6.00;2.60;;;8.90;99.90;;;;;;2603719;46;20123;31
2023/11/20 06:43:24;;;;;;;5.43;2.17;;;8.90;99.90;;;;;;2584976;54;20841;31
2023/11/20 06:45:59;;;;;;;4.80;2.50;;;8.90;99.90;;;;;;2585030;54;20246;31
2023/11/20 06:48:32;;;;;;;;;;;8.90;99.90;;;;;;2603842;46;19938;31
2023/11/20 06:51:05;;;;;;;5.13;2.17;;;8.90;99.90;;;;;;2584819;54;20798;31
2023/11/20 06:53:40;;;;;;;3.50;1.90;;;;;;;;;;2586870;54;20031;-75
2023/11/20 06:56:21;;;;;;;7.23;2.00;;;;;;;;;;2585086;54;21001;31
2023/11/20 06:58:56;;;;;;;3.83;1.85;;;;;;;;;;2603648;46;20913;31
2023/11/20 07:01:31;;;;;;;4.70;2.50;;;8.90;99.90;;;;;;2584973;54;20944;31
2023/11/20 07:04:05;;;;;;;2.67;1.48;;;9.00;99.90;;;;;;2584969;54;20058;31
2023/11/20 07:06:42;;;;;;;4.22;1.77;;;8.90;99.90;;;;;;2585073;54;20064;31
2023/11/20 07:09:17;;;;;;;4.83;1.57;;;8.90;99.90;;;;;;2584882;54;20917;31
2023/11/20 07:11:53;;;;;;;4.53;1.67;;;8.90;99.90;;;;;;2584708;54;20028;31
2023/11/20 07:14:28;;;;;;;3.97;1.63;;;8.90;99.90;;;;;;2584552;54;20230;31
2023/11/20 07:17:02;;;;;;;2.90;1.67;;;8.90;99.90;;;;;;2584821;54;20929;31
2023/11/20 07:19:37;;;;;;;5.10;1.70;;;8.90;99.90;;;;;;2602920;46;20038;31
2023/11/20 07:22:13;;;;;;;2.45;1.60;;;8.90;99.90;;;;;;2603021;47;20934;31
2023/11/20 07:24:46;;;;;;;4.75;1.75;;;8.90;99.90;;;;;;2584950;54;20050;31
2023/11/20 07:27:24;;;;;;;4.18;1.80;;;8.90;99.90;;;;;;2584755;54;20030;31
2023/11/20 07:29:58;;;;;;;4.75;1.65;;;9.00;99.90;;;;;;2584739;54;20034;31
2023/11/20 07:32:32;;;;;;;3.58;1.80;;;8.90;99.90;;;;;;2584717;54;20927;31
2023/11/20 07:35:07;;;;;;;4.50;2.20;;;9.00;99.90;;;;;;2602934;47;20031;31
2023/11/20 07:37:41;;;;;;;4.85;1.80;;;8.90;99.90;;;;;;2584287;54;21509;31
2023/11/20 07:40:18;;;;;;;4.97;2.30;;;8.90;99.90;;;;;;2603171;47;19993;31
2023/11/20 07:42:56;;;;;;;3.08;1.90;;;8.90;99.90;;;;;;2584571;54;20030;31
2023/11/20 07:45:35;;;;;;;4.10;1.93;;;8.90;99.90;;;;;;2584852;54;20945;31
2023/11/20 07:48:12;;;;;;;3.47;1.75;;;8.90;99.90;;;;;;2584822;54;20027;31
2023/11/20 07:50:48;;;;;;;;;;;8.90;99.90;;;;;;2584729;54;20912;31
2023/11/20 07:53:21;;;;;;;1.75;1.05;;;8.90;99.90;;;;;;2583750;54;20819;31
2023/11/20 07:55:54;;;;;;;3.47;1.80;;;8.90;99.90;;;;;;2583627;54;20040;31
2023/11/20 07:58:33;;;;;;;3.90;1.90;;;8.90;99.90;;;;;;2584610;54;20900;31
2023/11/20 08:01:10;;;;;;;2.03;1.25;;;8.90;99.90;;;;;;2584422;54;20113;31
2023/11/20 08:03:44;;;;;;;3.90;2.03;;;8.90;99.90;;;;;;2584637;54;20981;31
2023/11/20 08:06:19;;;;;;;4.50;2.20;;;8.90;99.90;;;;;;2584366;54;21255;31
2023/11/20 08:08:55;;;;;;;2.78;2.00;;;8.90;99.90;;;;;;2584539;54;20029;31
2023/11/20 08:11:30;;;;;;;3.80;2.00;;;8.80;99.90;;;;;;2584509;54;20042;31
2023/11/20 08:14:08;;;;;;;3.63;2.28;;;8.80;99.90;;;;;;2584622;54;21915;31
2023/11/20 08:16:43;;;;;;;3.80;1.65;;;8.80;99.90;;;;;;2584702;54;20149;31
2023/11/20 08:19:17;;;;;;;3.70;2.13;;;8.80;99.90;;;;;;2602753;47;20053;31
2023/11/20 08:21:52;;;;;;;5.05;2.10;;;8.80;99.90;;;;;;2584625;54;20256;31
2023/11/20 08:24:35;;;;;;;3.70;1.90;;;8.80;99.90;;;;;;2585071;54;20934;31
2023/11/20 08:27:09;;;;;;;5.85;1.73;;;8.80;99.90;;;;;;2585538;54;20070;31
2023/11/20 08:29:49;;;;;;;5.10;1.77;;;8.80;99.90;;;;;;2585248;54;20089;31
2023/11/20 08:32:25;;;;;;;4.15;1.90;;;8.80;99.90;;;;;;2603530;46;20109;31
2023/11/20 08:35:00;;;;;;;7.43;2.00;;;8.80;99.90;;;;;;2585085;54;20926;31
2023/11/20 08:37:37;;;;;;;3.73;2.03;;;8.80;99.90;;;;;;2603813;46;20945;31
2023/11/20 08:40:14;;;;;;;4.95;1.90;;;8.80;99.90;;;;;;2683038;39;21481;31
2023/11/20 08:42:48;;;;;;;3.60;1.87;;;8.80;99.90;;;;;;2585162;54;20034;31
2023/11/20 08:45:27;;;;;;;3.53;1.83;;;;;;;;;;2585311;54;20137;31
2023/11/20 08:48:05;;;;;;;4.67;2.03;;;;;;;;;;2585646;54;20051;-84
2023/11/20 08:50:40;;;;;;;4.45;1.95;;;;;;;;;;2585074;54;20053;31
2023/11/20 08:53:15;;;;;;;6.07;2.00;;;;;;;;;;2602837;46;20824;-80
2023/11/20 08:55:51;;;;;;;4.00;2.20;;;8.90;99.90;;;;;;2585540;54;20795;31
2023/11/20 08:58:27;;;;;;;3.75;1.95;;;8.90;99.90;;;;;;2584948;54;19935;31
2023/11/20 09:01:04;;;;;;;5.22;2.67;;;8.80;99.90;;;;;;2585517;54;20845;31
2023/11/20 09:03:40;;;;;;;5.32;2.47;;;8.80;99.90;;;;;;2585442;54;20042;31
2023/11/20 09:06:16;;;;;;;6.82;2.80;;;8.80;99.90;;;;;;2584316;54;20101;31
2023/11/20 09:08:50;;;;;;;5.03;2.72;;;8.80;99.90;;;;;;2603302;46;20109;31
2023/11/20 09:11:24;;;;;;;4.90;2.65;;;8.90;99.90;;;;;;2585441;54;20026;31
2023/11/20 09:13:57;;;;;;;6.50;3.25;;;8.80;99.90;;;;;;2603749;46;21230;31
2023/11/20 09:16:35;;;;;;;6.20;2.95;;;8.90;99.90;;;;;;2585503;54;20924;31
2023/11/20 09:19:11;;;;;;;6.40;3.70;;;8.90;99.90;;;;;;2584799;54;20121;31
2023/11/20 09:21:44;;;;;;;6.10;3.60;;;8.90;99.90;;;;;;2585137;54;20992;31
2023/11/20 09:24:18;;;;;;;6.82;3.63;;;9.00;99.90;;;;;;2585092;54;21006;31
2023/11/20 09:26:52;;;;;;;7.85;3.33;;;9.00;99.90;;;;;;2603273;46;20030;31
2023/11/20 09:29:25;;;;;;;6.40;3.28;;;9.00;99.90;;;;;;2603745;46;21916;31
2023/11/20 09:32:02;;;;;;;6.15;3.15;;;9.00;99.90;;;;;;2585091;54;20026;31
2023/11/20 09:34:36;;;;;;;7.40;3.03;;;9.10;99.90;;;;;;2603179;46;20959;31
2023/11/20 09:37:10;;;;;;;5.70;2.80;;;9.10;99.90;;;;;;2584905;54;20946;31
2023/11/20 09:39:46;;;;;;;5.28;3.10;;;9.10;99.90;;;;;;2585221;54;20113;31
2023/11/20 09:42:18;;;;;;;;;;;9.10;99.90;;;;;;2603734;46;20979;31
2023/11/20 09:44:53;;;;;;;7.80;2.70;;;9.20;99.90;;;;;;2603690;46;19946;31
2023/11/20 09:47:32;;;;;;;6.80;3.37;;;9.20;99.90;;;;;;2584926;54;20881;31
2023/11/20 09:50:10;;;;;;;7.15;3.40;;;9.30;99.90;;;;;;2584819;54;21129;31
2023/11/20 09:52:45;;;;;;;7.72;3.58;;;9.30;99.90;;;;;;2603513;46;20944;31
2023/11/20 09:55:22;;;;;;;6.72;2.90;;;9.40;99.90;;;;;;2584188;54;20915;31
2023/11/20 09:57:54;;;;;;;5.20;2.95;;;9.40;99.90;;;;;;2583678;54;20117;31
2023/11/20 10:00:29;;;;;;;6.88;3.13;;;9.50;99.90;;;;;;2582900;54;20835;31
2023/11/20 10:03:04;;;;;;;7.43;2.83;;;9.50;99.90;;;;;;2583015;54;20112;31
2023/11/20 10:05:41;;;;;;;6.70;2.50;;;9.50;99.90;;;;;;2582413;54;20046;31
2023/11/20 10:08:14;;;;;;;;;;;9.40;99.90;;;;;;2583132;54;20908;31
2023/11/20 10:10:52;;;;;;;4.60;2.60;;;9.40;99.90;;;;;;2583162;54;19958;31
2023/11/20 10:13:24;;;;;;;3.95;1.95;;;9.40;99.90;;;;;;2582998;54;21136;31
2023/11/20 10:16:00;;;;;;;5.45;2.33;;;9.40;99.90;;;;;;2600477;46;20042;31
2023/11/20 10:18:35;;;;;;;3.90;2.05;;;9.40;99.90;;;;;;2582801;54;20062;31
2023/11/20 10:21:08;;;;;;;4.53;2.00;;;9.40;99.90;;;;;;2582961;54;20046;31
2023/11/20 10:23:43;;;;;;;5.60;2.35;;;9.30;99.90;;;;;;2601594;46;20069;31
2023/11/20 10:26:15;;;;;;;7.07;2.10;;;9.30;99.90;;;;;;2582852;54;20101;31
2023/11/20 10:28:48;;;;;;;2.95;1.48;;;9.30;99.90;;;;;;2582813;54;20654;31
2023/11/20 10:31:20;;;;;;;4.30;2.00;;;9.30;99.90;;;;;;2583071;54;20073;31
2023/11/20 10:34:06;;;;;;;5.55;1.88;;;9.40;99.90;;;;;;2583388;54;21060;31
2023/11/20 10:36:39;;;;;;;3.17;1.73;;;9.40;99.90;;;;;;2583139;54;20830;31
2023/11/20 10:39:12;;;;;;;4.00;1.45;;;9.40;99.90;;;;;;2583090;54;20936;31
2023/11/20 10:41:46;;;;;;;2.90;1.50;;;9.40;99.90;;;;;;2600920;46;20062;31
2023/11/20 10:44:19;;;;;;;5.32;1.73;;;9.50;99.90;;;;;;2601410;46;20060;31
2023/11/20 10:46:51;;;;;;;3.50;1.40;;;9.50;99.90;;;;;;2582491;54;21002;31
2023/11/20 10:49:27;;;;;;;4.15;1.63;;;9.50;99.90;;;;;;2582722;54;20913;31
2023/11/20 10:52:00;;;;;;;3.37;1.07;;;9.50;99.90;;;;;;2601242;46;20972;31
2023/11/20 10:54:36;;;;;;;3.25;1.10;;;9.60;99.90;;;;;;2582734;54;21135;31
2023/11/20 10:57:09;;;;;;;5.13;1.65;;;9.60;99.90;;;;;;2583212;54;20038;31
2023/11/20 10:59:43;;;;;;;2.72;1.13;;;9.60;99.90;;;;;;2583070;54;20960;31
2023/11/20 11:02:20;;;;;;;4.57;1.05;;;9.70;99.90;;;;;;2583537;54;20022;31
2023/11/20 11:04:58;;;;;;;2.03;1.00;;;9.70;99.90;;;;;;2584189;54;20092;31
2023/11/20 11:07:33;;;;;;;1.90;0.90;;;9.70;99.90;;;;;;2584835;54;20037;31
2023/11/20 11:10:10;;;;;;;3.30;1.00;;;9.70;99.90;;;;;;2584504;54;21139;31
2023/11/20 11:12:44;;;;;;;4.05;1.50;;;9.70;99.90;;;;;;2584549;54;20874;31
2023/11/20 11:15:17;;;;;;;2.43;1.40;;;9.70;99.90;;;;;;2603099;46;20034;31
2023/11/20 11:17:51;;;;;;;2.25;1.15;;;9.70;99.90;;;;;;2603440;46;20022;31
2023/11/20 11:20:32;;;;;;;5.43;1.70;;;9.70;99.90;;;;;;2584669;54;20088;31
2023/11/20 11:23:09;;;;;;;3.37;1.30;;;9.70;99.90;;;;;;2584678;54;20027;31
2023/11/20 11:25:48;;;;;;;2.60;1.30;;;9.70;99.90;;;;;;2602936;47;21171;31
2023/11/20 11:28:21;;;;;;;2.65;0.98;;;9.80;99.90;;;;;;2585110;54;21116;31
2023/11/20 11:30:56;;;;;;;4.50;1.55;;;9.80;99.90;;;;;;2584628;54;20919;31
2023/11/20 11:33:50;;;;;;;3.17;1.40;;;9.80;99.90;;;;;;2584682;54;20030;31
2023/11/20 11:36:29;;;;;;;4.07;1.60;;;9.80;99.90;;;;;;2584822;54;20907;31
2023/11/20 11:39:05;;;;;;;4.00;1.60;;;;;;;;;;2584758;54;20037;31
2023/11/20 11:44:11;;;;;;;4.72;1.65;;;10.10;99.90;;;;;;2603266;47;19934;31
2023/11/20 11:46:46;;;;;;;3.77;1.70;;;10.10;99.90;;;;;;2584512;54;20978;31
2023/11/20 11:49:23;;;;;;;2.97;1.80;;;10.00;99.90;;;;;;2584967;54;20827;31
2023/11/20 11:52:06;;;;;;;4.63;2.27;;;10.00;99.90;;;;;;2584888;54;20897;31
2023/11/20 11:54:42;;;;;;;4.63;2.60;;;10.20;99.90;;;;;;2603252;47;20022;31
2023/11/20 11:57:21;;;;;;;7.03;2.80;;;10.30;99.90;;;;;;2584907;54;20760;31
2023/11/20 11:59:56;;;;;;;6.55;3.63;;;10.10;99.90;;;;;;2604065;46;20026;31
2023/11/20 12:02:57;;;;;;;6.40;2.83;;;10.20;99.90;;;;;;2604022;46;20891;31
2023/11/20 12:05:32;;;;;;;6.43;2.40;;;10.20;99.90;;;;;;2597628;46;20919;31
2023/11/20 12:08:11;;;;;;;6.90;2.50;;;10.20;99.90;;;;;;2585373;54;20038;31
2023/11/20 12:10:46;;;;;;;5.65;2.33;;;10.20;99.90;;;;;;2585422;54;20116;31
2023/11/20 12:13:20;;;;;;;3.50;1.73;;;10.20;99.90;;;;;;2585647;54;20940;31
2023/11/20 12:15:54;;;;;;;4.27;1.53;;;10.20;99.90;;;;;;2585339;54;20952;31
2023/11/20 12:18:28;;;;;;;3.72;1.60;;;10.20;99.90;;;;;;2585488;54;20026;31
2023/11/20 12:21:04;;;;;;;4.30;2.50;;;10.20;99.90;;;;;;2603786;46;20966;31
2023/11/20 12:23:42;;;;;;;7.00;2.90;;;10.20;99.90;;;;;;2585373;54;20950;31
2023/11/20 12:26:19;;;;;;;7.90;3.45;;;10.20;99.90;;;;;;2585444;54;20895;31
2023/11/20 12:28:54;;;;;;;6.90;3.60;;;10.20;99.90;;;;;;2585497;54;20886;31
2023/11/20 12:31:29;;;;;;;5.63;2.40;;;10.20;99.90;;;;;;2585582;54;21020;31
2023/11/20 12:34:07;;;;;;;4.88;2.33;;;10.20;99.90;;;;;;2585115;54;20376;31
2023/11/20 12:36:41;;;;;;;3.47;1.58;;;10.20;99.90;;;;;;2585395;54;20792;31
2023/11/20 12:39:18;;;;;;;4.67;1.90;;;10.20;99.90;;;;;;2604168;46;20034;31
2023/11/20 12:41:54;;;;;;;3.00;1.65;;;10.20;99.90;;;;;;2585147;54;20293;31
2023/11/20 12:44:29;;;;;;;4.45;1.65;;;10.20;99.90;;;;;;2603958;46;20046;31
2023/11/20 12:47:05;;;;;;;3.22;2.20;;;10.30;99.90;;;;;;2604208;46;20934;31
2023/11/20 12:49:39;;;;;;;4.80;2.00;;;10.20;99.90;;;;;;2585130;54;20108;31
2023/11/20 12:52:17;;;;;;;4.10;1.80;;;10.30;99.90;;;;;;2585269;54;20027;31
2023/11/20 12:54:54;;;;;;;5.05;1.85;;;10.30;99.90;;;;;;2585389;54;20893;31
2023/11/20 12:57:28;;;;;;;2.70;1.35;;;10.30;99.90;;;;;;2585351;54;20861;31
2023/11/20 13:00:04;;;;;;;4.30;1.80;;;10.30;99.90;;;;;;2585415;54;20874;31
2023/11/20 13:02:41;;;;;;;5.07;2.00;;;10.30;99.90;;;;;;2603476;46;20912;31
2023/11/20 13:05:16;;;;;;;5.57;2.13;;;10.30;99.90;;;;;;2585413;54;20037;31
2023/11/20 13:07:55;;;;;;;4.93;2.47;;;10.30;99.90;;;;;;2585091;54;20030;31
2023/11/20 13:10:33;;;;;;;5.60;2.45;;;10.30;99.90;;;;;;2603530;47;20265;31
2023/11/20 13:13:07;;;;;;;3.88;2.25;;;10.30;99.90;;;;;;2585136;54;20027;31
2023/11/20 13:15:42;;;;;;;3.40;1.70;;;;;;;;;;2585568;54;20766;31
2023/11/20 13:18:16;;;;;;;1.80;1.20;;;10.50;99.90;;;;;;2585393;54;20880;31
2023/11/20 13:20:52;;;;;;;4.10;1.52;;;10.40;99.90;;;;;;2584849;54;20050;31
2023/11/20 13:23:28;;;;;;;2.05;1.20;;;10.40;99.90;;;;;;2584746;54;20891;31
2023/11/20 13:26:12;;;;;;;4.10;1.97;;;10.40;99.90;;;;;;2603343;46;19934;31
2023/11/20 13:28:44;;;;;;;2.45;1.20;;;10.40;99.90;;;;;;2584804;54;20141;31
2023/11/20 13:31:17;;;;;;;3.50;1.50;;;10.40;99.90;;;;;;2585582;54;20917;31
2023/11/20 13:33:51;;;;;;;4.77;1.90;;;10.40;99.90;;;;;;2585139;54;20992;31
2023/11/20 13:36:25;;;;;;;9.80;2.70;;;10.50;99.90;;;;;;2585232;54;20825;31
2023/11/20 13:39:02;;;;;;;4.28;1.35;;;;;;;;;;2585286;54;20137;31
2023/11/20 13:41:38;;;;;;;6.40;1.60;;;;;;;;;;2603379;46;20083;31
2023/11/20 13:44:13;;;;;;;5.05;1.90;;;;;;;;;;2585292;54;21017;31
2023/11/20 13:46:46;;;;;;;3.55;1.50;;;10.60;99.90;;;;;;2585028;54;20083;31
2023/11/20 13:49:24;;;;;;;4.05;1.80;;;10.60;99.90;;;;;;2603458;46;20057;31
2023/11/20 13:52:00;;;;;;;3.83;1.75;;;10.50;99.90;;;;;;2603532;46;20048;31
2023/11/20 13:54:35;;;;;;;5.97;1.90;;;10.50;99.90;;;;;;2585215;54;20757;31